Nearby METAR Reports

 

EGMC - Southend-On-Sea, United Kingdom
Distance from station: NE 10km
Updated: 21/09/2017 19:50
Clear
Clear
 Wind from SSW
Wind: SSW 9 mph , 15 km/h
Temperature: 15°C
Dew Point: 12°C
Humidity: 82%
Barometer: 1016 hPa
Summary: Clear
Visibility: greater than 7 miles , 10 km
2017/09/21 18:50 EGMC 211850Z 20008KT CAVOK 15/12 Q1016
EGLC - London City Airp, United Kingdom
Distance from station: W 37km
Updated: 21/09/2017 19:50
Mostly cloudy
Mostly cloudy
 Wind from WSW
Wind: WSW 9 mph , 15 km/h
Temperature: 16°C
Dew Point: 14°C
Humidity: 88%
Barometer: 1016 hPa
Clouds: Mostly cloudy
Visibility: 6 miles , 10 km
Cloud details: Mostly cloudy 427 m
Mostly cloudy 732 m
2017/09/21 18:50 EGLC 211850Z AUTO 25008KT 210V300 9999 BKN014 BKN024 16/14 Q1016
EGKB - Biggin Hill, United Kingdom
Distance from station: WSW 45km
Updated: 21/09/2017 19:50
Few Clouds
Few Clouds
 Wind from WSW
Wind: WSW 6 mph , 9 km/h
Temperature: 14°C
Dew Point: 13°C
Humidity: 94%
Barometer: 1017 hPa
Clouds: Few Clouds
Visibility: 6 miles , 10 km
Cloud details: Few Clouds 305 m
2017/09/21 18:50 EGKB 211850Z 24005KT 210V280 9999 FEW010 14/13 Q1017
 
EGSS - Stansted Airport, United Kingdom
Distance from station: NNW 48km
Updated: 21/09/2017 19:50
Light rain, Overcast
Light rain, Overcast
 Wind from SSW
Wind: SSW 6 mph , 9 km/h
Temperature: 14°C
Dew Point: 14°C
Humidity: 100%
Barometer: 1016 hPa
Summary: Light rain
Clouds: Overcast
Visibility: 4 miles , 7 km
Cloud details: Mostly cloudy 152 m
Overcast 1494 m
2017/09/21 18:50 EGSS 211850Z AUTO 20005KT 7000 -RA BKN005 OVC049 14/14 Q1016 RERA REDZ
EGKK - London/Gatwick A, United Kingdom
Distance from station: SW 67km
Updated: 21/09/2017 19:50
Partly cloudy
Partly cloudy
 Wind from SW
Wind: SW 3 mph , 6 km/h
Temperature: 14°C
Dew Point: 13°C
Humidity: 94%
Barometer: 1017 hPa
Clouds: Partly cloudy
Visibility: 6 miles , 10 km
Cloud details: Partly cloudy 1158 m
2017/09/21 18:50 EGKK 211850Z 23003KT 9999 SCT038 14/13 Q1017
EGMD - Lydd Airport, United Kingdom
Distance from station: SSE 67km
Updated: 21/09/2017 19:50
Mostly cloudy
Mostly cloudy
 Wind from SW
Wind: SW 13 mph , 20 km/h
Temperature: 16°C
Dew Point: 15°C
Humidity: 94%
Barometer: 1017 hPa
Clouds: Mostly cloudy
Visibility: 6 miles , 10 km
Cloud details: Few Clouds 274 m
Partly cloudy 549 m
Mostly cloudy 701 m
2017/09/21 18:50 EGMD 211850Z AUTO 23011KT 9999 FEW009/// SCT018/// BKN023/// 16/15 Q1017
 
EGWU - Northolt Raf, United Kingdom
Distance from station: W 69km
Updated: 21/09/2017 19:50
Clear
Clear
 Wind from SW
Wind: SW 3 mph , 6 km/h
Temperature: 14°C
Dew Point: 13°C
Humidity: 94%
Barometer: 1016 hPa
Summary: Clear
Visibility: greater than 7 miles , 10 km
2017/09/21 18:50 EGWU 211850Z 23003KT CAVOK 14/13 Q1016 NOSIG
EGLL - London/Heathrow, United Kingdom
Distance from station: W 72km
Updated: 21/09/2017 19:50
Clear
Clear
 Wind from WSW
Wind: WSW 9 mph , 15 km/h
Temperature: 15°C
Dew Point: 13°C
Humidity: 88%
Barometer: 1017 hPa
Clouds: Clear
Visibility: 6 miles , 10 km
2017/09/21 18:50 EGLL 211850Z AUTO 24008KT 9999 NCD 15/13 Q1017 NOSIG
EGUW - Wattisham Raf, United Kingdom
Distance from station: NNE 72km
Updated: 21/09/2017 19:50
Rain, Overcast
Rain, Overcast
 Wind from SW
Wind: SW 9 mph , 15 km/h
Temperature: 14°C
Dew Point: 13°C
Humidity: 94%
Barometer: 1016 hPa
Summary: Rain
Clouds: Overcast
Visibility: 5 miles , 8 km
Cloud details: Mostly cloudy 274 m
Overcast 701 m
2017/09/21 18:50 EGUW 211850Z 23008KT 8000 RA BKN009 OVC023 14/13 Q1016 GRN BECMG FEW010 BLU
 
EGGW - Luton Airport, United Kingdom
Distance from station: WNW 76km
Updated: 21/09/2017 19:50
Clear
Clear
 Wind from WSW
Wind: WSW 5 mph , 7 km/h
Temperature: 13°C
Dew Point: 12°C
Humidity: 94%
Barometer: 1016 hPa
Clouds: Clear
Visibility: 6 miles , 10 km
2017/09/21 18:50 EGGW 211850Z AUTO 24004KT 9999 NCD 13/12 Q1016
EGSC - Cambridge, United Kingdom
Distance from station: NNW 81km
Updated: 21/09/2017 17:50
NOT Current
Light rain, Mostly cloudy
Light rain, Mostly cloudy
 Wind from SSW
Wind: SSW 13 mph , 20 km/h
Temperature: 16°C
Dew Point: 14°C
Humidity: 88%
Barometer: 1014 hPa
Summary: Light rain
Clouds: Mostly cloudy
Visibility: 6 miles , 9 km
Cloud details: Mostly cloudy 671 m
2017/09/21 16:50 EGSC 211650Z 21011KT 9000 -RA BKN022 16/14 Q1014